Time;durP1;ratioP1;P1;durP2;ratioP2;P2;SDS_P1;SDS_P2;PMS_P1;PMS_P2;Temp;Humidity;BMP_temperature;BMP_pressure;BME280_temperature;BME280_humidity;BME280_pressure;Samples;Min_cycle;Max_cycle;Signal;HPM_P1;HPM_P2
2024/01/14 00:00:03;;;;;;;12.45;2.13;;;4.70;92.30;;;;;;5035258;28;20478;-81
2024/01/14 00:02:29;;;;;;;16.45;2.10;;;4.70;92.30;;;;;;5002644;28;20032;-80
2024/01/14 00:04:55;;;;;;;10.05;2.47;;;4.80;92.30;;;;;;5002142;28;20083;-79
2024/01/14 00:07:20;;;;;;;16.05;2.47;;;4.80;92.30;;;;;;5034987;28;20032;-81
2024/01/14 00:09:46;;;;;;;14.90;2.30;;;4.90;92.30;;;;;;5002382;28;20044;-80
2024/01/14 00:12:12;;;;;;;15.60;2.28;;;4.90;92.30;;;;;;4986161;28;20075;-79
2024/01/14 00:14:37;;;;;;;13.20;2.58;;;5.00;92.50;;;;;;5034875;28;20075;-80
2024/01/14 00:17:03;;;;;;;16.40;3.50;;;5.00;92.60;;;;;;5018377;28;20037;-79
2024/01/14 00:19:29;;;;;;;16.13;2.83;;;5.00;92.60;;;;;;5035223;28;20041;-80
2024/01/14 00:21:55;;;;;;;13.75;2.78;;;4.90;92.80;;;;;;5034910;28;20045;-78
2024/01/14 00:24:20;;;;;;;13.43;2.75;;;5.00;92.90;;;;;;5018607;28;20124;-79
2024/01/14 00:26:46;;;;;;;10.98;2.50;;;5.10;93.00;;;;;;4986742;28;20041;-80
2024/01/14 00:29:11;;;;;;;7.63;1.45;;;5.10;92.70;;;;;;5019283;28;20033;-78
2024/01/14 00:31:37;;;;;;;8.00;1.60;;;5.20;92.40;;;;;;5018795;28;20044;-78
2024/01/14 00:34:04;;;;;;;13.55;1.20;;;5.20;92.30;;;;;;5018402;28;20068;-80
2024/01/14 00:36:29;;;;;;;7.20;1.20;;;5.20;92.20;;;;;;5018569;28;20126;-78
2024/01/14 00:38:55;;;;;;;10.13;1.20;;;5.20;92.10;;;;;;5034895;28;20142;-80
2024/01/14 00:41:21;;;;;;;8.30;1.55;;;5.20;91.90;;;;;;5018306;28;20052;-79
2024/01/14 00:43:47;;;;;;;11.10;1.80;;;5.10;92.00;;;;;;5002630;28;20051;-79
2024/01/14 00:46:12;;;;;;;7.97;1.63;;;5.10;92.20;;;;;;5005651;28;20162;-81
2024/01/14 00:48:38;;;;;;;7.60;1.65;;;5.10;92.30;;;;;;5022141;28;20049;-81
2024/01/14 00:51:05;;;;;;;13.15;3.00;;;5.10;92.40;;;;;;5022076;28;20427;-81
2024/01/14 00:53:30;;;;;;;9.10;1.80;;;5.10;92.50;;;;;;5038326;28;20128;-80
2024/01/14 00:55:56;;;;;;;11.60;3.03;;;5.10;92.50;;;;;;5005299;28;20175;-79
2024/01/14 00:58:22;;;;;;;10.68;1.73;;;5.10;92.50;;;;;;5021769;28;20052;-80
2024/01/14 01:00:48;;;;;;;6.72;1.23;;;5.00;92.50;;;;;;5005343;28;20041;-81
2024/01/14 01:03:13;;;;;;;9.82;1.73;;;5.10;92.20;;;;;;5021887;28;20076;-80
2024/01/14 01:05:39;;;;;;;10.05;2.35;;;5.10;92.00;;;;;;4989056;28;20037;-79
2024/01/14 01:08:05;;;;;;;8.75;1.67;;;5.00;91.80;;;;;;5005283;28;20033;-81
2024/01/14 01:10:31;;;;;;;14.27;2.30;;;5.00;91.80;;;;;;5037896;28;20044;-80
2024/01/14 01:12:57;;;;;;;14.43;2.08;;;5.00;91.70;;;;;;5004836;28;20049;-81
2024/01/14 01:15:22;;;;;;;6.75;1.65;;;5.00;91.70;;;;;;4988806;28;20128;-81
2024/01/14 01:17:48;;;;;;;9.40;2.38;;;5.00;91.60;;;;;;5037443;28;20041;-80
2024/01/14 01:20:14;;;;;;;10.98;2.40;;;5.00;91.50;;;;;;5037420;28;20098;-80
2024/01/14 01:22:39;;;;;;;17.15;2.60;;;4.90;91.60;;;;;;5037454;28;20044;-80
2024/01/14 01:25:05;;;;;;;13.05;2.50;;;4.80;91.70;;;;;;5037645;28;20094;-79
2024/01/14 01:27:31;;;;;;;13.98;2.35;;;4.80;91.70;;;;;;5037898;28;20037;-80
2024/01/14 01:29:57;;;;;;;9.70;2.08;;;4.80;91.80;;;;;;5037631;28;20036;-80
2024/01/14 01:32:23;;;;;;;18.92;3.05;;;4.80;91.90;;;;;;5004872;28;20078;-81
2024/01/14 01:34:49;;;;;;;15.38;3.15;;;4.60;91.80;;;;;;5020996;28;20386;-80
2024/01/14 01:37:15;;;;;;;17.25;2.95;;;4.60;92.00;;;;;;5021113;28;20044;-80
2024/01/14 01:39:41;;;;;;;7.45;2.40;;;4.50;92.10;;;;;;5020789;28;20362;-79
2024/01/14 01:42:07;;;;;;;11.85;3.05;;;4.50;92.30;;;;;;5004347;28;20124;-82
2024/01/14 01:44:33;;;;;;;13.98;2.47;;;4.50;92.10;;;;;;5037256;28;20033;-80
2024/01/14 01:47:00;;;;;;;17.02;2.53;;;4.40;92.00;;;;;;5020974;28;20041;-81
2024/01/14 01:49:29;;;;;;;17.25;3.70;;;4.30;92.20;;;;;;5037115;28;20120;-79
2024/01/14 01:51:57;;;;;;;15.93;3.03;;;4.20;92.20;;;;;;5004943;28;20440;-79
2024/01/14 01:54:25;;;;;;;16.33;3.35;;;4.20;92.30;;;;;;5020451;28;20045;-79
2024/01/14 01:56:52;;;;;;;17.55;2.67;;;4.10;92.40;;;;;;5021005;28;20057;-81
2024/01/14 01:59:19;;;;;;;16.58;3.17;;;4.10;92.60;;;;;;5020808;28;20139;-80
2024/01/14 02:01:46;;;;;;;19.42;3.53;;;4.00;92.60;;;;;;5020649;28;20048;-79
2024/01/14 02:04:13;;;;;;;14.68;3.78;;;4.00;92.80;;;;;;4988306;28;20120;-79
2024/01/14 02:06:40;;;;;;;17.63;3.20;;;4.10;92.80;;;;;;5020474;28;20124;-79
2024/01/14 02:09:07;;;;;;;21.80;3.17;;;4.10;92.90;;;;;;5020656;28;20072;-80
2024/01/14 02:11:34;;;;;;;23.73;3.33;;;4.10;93.00;;;;;;5020585;28;20040;-81
2024/01/14 02:13:59;;;;;;;17.30;3.35;;;4.00;93.00;;;;;;5020680;28;20037;-79
2024/01/14 02:16:25;;;;;;;20.80;3.55;;;4.00;93.00;;;;;;5004003;28;20489;-81
2024/01/14 02:18:51;;;;;;;12.50;2.92;;;3.90;93.00;;;;;;5003982;28;20044;-80
2024/01/14 02:21:20;;;;;;;17.27;2.85;;;3.90;93.10;;;;;;5003793;28;20132;-81
2024/01/14 02:23:52;;;;;;;17.42;3.22;;;3.80;93.10;;;;;;5020101;28;20041;-81
2024/01/14 02:26:18;;;;;;;18.70;3.55;;;3.80;93.40;;;;;;5019906;28;20547;-80
2024/01/14 02:28:44;;;;;;;14.32;3.10;;;3.80;93.40;;;;;;5036334;28;20045;-79
2024/01/14 02:31:10;;;;;;;13.88;2.40;;;3.80;93.40;;;;;;5036681;28;20032;-81
2024/01/14 02:33:36;;;;;;;19.15;2.90;;;3.80;93.40;;;;;;5020045;28;20505;-81
2024/01/14 02:36:02;;;;;;;15.10;3.13;;;3.90;93.40;;;;;;5020187;28;20084;-80
2024/01/14 02:38:27;;;;;;;14.52;3.00;;;3.80;93.40;;;;;;5020080;28;20473;-80
2024/01/14 02:40:53;;;;;;;11.75;2.00;;;3.80;93.40;;;;;;5003654;28;20158;-81
2024/01/14 02:43:19;;;;;;;10.63;2.20;;;3.80;93.30;;;;;;5036090;28;20474;-81
2024/01/14 02:45:45;;;;;;;13.98;2.20;;;3.90;93.50;;;;;;5020098;28;20512;-81
2024/01/14 02:48:11;;;;;;;9.55;2.38;;;3.80;93.40;;;;;;5003657;28;20045;-80
2024/01/14 02:50:36;;;;;;;12.02;2.33;;;3.80;93.50;;;;;;5036038;28;20037;-80
2024/01/14 02:53:02;;;;;;;10.48;2.13;;;3.90;93.40;;;;;;5019845;28;20045;-80
2024/01/14 02:55:28;;;;;;;12.73;2.13;;;3.90;93.30;;;;;;5019857;28;20053;-79
2024/01/14 02:57:55;;;;;;;11.40;2.00;;;3.80;93.30;;;;;;4987781;28;20140;-81
2024/01/14 03:00:21;;;;;;;20.48;2.85;;;3.80;93.30;;;;;;5019686;28;20049;-80
2024/01/14 03:02:46;;;;;;;14.23;2.55;;;3.70;93.40;;;;;;5035715;28;20099;-81
2024/01/14 03:05:12;;;;;;;8.50;2.22;;;3.70;93.60;;;;;;4986951;28;20037;-80
2024/01/14 03:07:38;;;;;;;12.95;2.30;;;3.70;93.60;;;;;;5019146;28;20091;-81
2024/01/14 03:10:04;;;;;;;10.48;2.15;;;3.70;93.50;;;;;;5003046;28;20527;-81
2024/01/14 03:12:29;;;;;;;12.80;2.75;;;3.70;93.70;;;;;;5035657;28;20044;-82
2024/01/14 03:14:55;;;;;;;15.27;2.22;;;3.70;93.50;;;;;;5003203;28;20242;-80
2024/01/14 03:17:21;;;;;;;21.35;3.78;;;3.70;93.60;;;;;;5019046;28;20397;-81
2024/01/14 03:19:46;;;;;;;12.70;2.17;;;3.70;93.60;;;;;;5018898;28;20075;-81
2024/01/14 03:22:13;;;;;;;12.98;2.58;;;3.60;93.70;;;;;;5002530;28;20048;-81
2024/01/14 03:24:39;;;;;;;14.18;2.53;;;3.70;93.70;;;;;;5003300;28;20385;-80
2024/01/14 03:27:05;;;;;;;14.23;2.78;;;3.70;93.70;;;;;;5018967;28;20037;-80
2024/01/14 03:29:30;;;;;;;12.07;2.47;;;3.60;93.70;;;;;;5003027;28;20036;-80
2024/01/14 03:31:56;;;;;;;12.43;2.25;;;3.70;93.90;;;;;;5035490;28;20127;-81
2024/01/14 03:34:22;;;;;;;21.95;3.58;;;3.70;93.80;;;;;;5019053;28;20037;-80
2024/01/14 03:36:47;;;;;;;9.68;2.58;;;3.70;93.80;;;;;;5003003;28;20052;-80
2024/01/14 03:39:13;;;;;;;12.82;2.53;;;3.70;93.90;;;;;;5035125;28;20370;-79
2024/01/14 03:41:39;;;;;;;10.50;2.78;;;3.80;93.80;;;;;;5002753;28;20098;-81
2024/01/14 03:44:05;;;;;;;13.95;2.25;;;3.80;93.70;;;;;;4986824;28;20393;-81
2024/01/14 03:46:31;;;;;;;14.30;3.00;;;3.80;93.70;;;;;;5018934;28;20033;-80
2024/01/14 03:48:56;;;;;;;21.70;3.97;;;3.90;93.70;;;;;;5035319;28;20044;-82
2024/01/14 03:51:22;;;;;;;16.60;3.35;;;3.90;93.70;;;;;;5002735;28;20371;-80
2024/01/14 03:53:48;;;;;;;18.60;3.22;;;3.90;93.70;;;;;;5002456;28;20076;-80
2024/01/14 03:56:13;;;;;;;11.23;3.15;;;3.90;93.70;;;;;;5018421;28;20099;-79
2024/01/14 03:58:39;;;;;;;19.58;2.97;;;4.00;93.80;;;;;;5018858;28;20132;-80
2024/01/14 04:01:05;;;;;;;16.50;2.75;;;4.10;93.70;;;;;;5018672;28;20041;-80
2024/01/14 04:03:30;;;;;;;12.63;2.65;;;4.10;93.80;;;;;;5002358;28;20044;-81
2024/01/14 04:05:58;;;;;;;12.55;2.92;;;4.20;93.80;;;;;;5002720;28;20037;-81
2024/01/14 04:08:24;;;;;;;15.98;2.28;;;4.20;93.70;;;;;;5019228;28;20113;-81
2024/01/14 04:10:50;;;;;;;12.90;2.22;;;4.20;93.70;;;;;;5002388;28;20151;-81
2024/01/14 04:13:15;;;;;;;19.45;4.03;;;4.10;93.70;;;;;;5002295;28;20119;-81
2024/01/14 04:15:41;;;;;;;18.08;3.05;;;4.10;93.90;;;;;;5002390;28;20040;-82
2024/01/14 04:18:07;;;;;;;14.85;3.80;;;4.00;93.80;;;;;;5036222;28;20041;-81
2024/01/14 04:20:32;;;;;;;9.77;2.00;;;3.90;93.90;;;;;;4989807;28;20048;-81
2024/01/14 04:22:58;;;;;;;11.23;2.55;;;3.80;93.90;;;;;;5022531;28;20094;-81
2024/01/14 04:25:24;;;;;;;7.03;2.20;;;3.70;94.00;;;;;;5022449;28;20480;-80
2024/01/14 04:27:50;;;;;;;14.80;2.20;;;3.70;94.00;;;;;;4989952;28;20121;-81
2024/01/14 04:30:15;;;;;;;9.82;1.52;;;3.60;94.10;;;;;;5022293;28;20068;-82
2024/01/14 04:32:41;;;;;;;15.85;2.55;;;3.60;94.20;;;;;;5005935;28;20052;-80
2024/01/14 04:35:07;;;;;;;8.40;2.33;;;3.50;94.20;;;;;;5022092;28;20078;-82
2024/01/14 04:37:33;;;;;;;12.95;3.15;;;3.50;94.40;;;;;;5022086;28;20047;-81
2024/01/14 04:39:59;;;;;;;11.88;2.40;;;3.50;94.40;;;;;;4989833;28;20469;-79
2024/01/14 04:42:24;;;;;;;14.57;2.78;;;3.50;94.40;;;;;;5022155;28;20132;-80
2024/01/14 04:44:50;;;;;;;17.52;3.05;;;3.50;94.50;;;;;;5022294;28;20084;-81
2024/01/14 04:47:16;;;;;;;23.17;3.28;;;3.50;94.50;;;;;;5021885;28;20036;-81
2024/01/14 04:49:44;;;;;;;12.65;2.38;;;3.50;94.50;;;;;;5005396;28;20052;-80
2024/01/14 04:52:10;;;;;;;15.20;2.30;;;3.50;94.50;;;;;;5005605;28;20045;-80
2024/01/14 04:54:36;;;;;;;20.15;3.17;;;3.50;94.60;;;;;;4989396;28;20095;-81
2024/01/14 04:57:02;;;;;;;14.40;2.78;;;3.60;94.50;;;;;;5001908;28;20053;-80
2024/01/14 04:59:27;;;;;;;11.25;2.63;;;3.60;94.50;;;;;;5034865;28;20045;-82
2024/01/14 05:01:53;;;;;;;11.23;2.92;;;3.60;94.60;;;;;;5018556;28;20095;-80
2024/01/14 05:04:19;;;;;;;15.27;2.33;;;3.60;94.50;;;;;;5018443;28;20144;-80
2024/01/14 05:06:44;;;;;;;11.05;2.47;;;3.60;94.60;;;;;;5002019;28;20044;-80
2024/01/14 05:09:10;;;;;;;17.42;2.95;;;3.60;94.60;;;;;;4985739;28;20037;-81
2024/01/14 05:11:36;;;;;;;12.60;2.05;;;3.70;94.70;;;;;;5018150;28;20080;-81
2024/01/14 05:14:02;;;;;;;12.18;2.63;;;3.70;94.80;;;;;;5001942;28;20172;-83
2024/01/14 05:16:27;;;;;;;12.63;2.42;;;3.80;94.70;;;;;;5001889;28;20140;-81
2024/01/14 05:18:53;;;;;;;14.70;3.20;;;3.80;94.70;;;;;;5018352;28;20045;-81
2024/01/14 05:21:19;;;;;;;12.55;2.38;;;3.70;94.70;;;;;;4985628;28;20119;-82
2024/01/14 05:23:45;;;;;;;18.67;3.35;;;3.80;94.80;;;;;;4985531;28;20179;-81
2024/01/14 05:26:11;;;;;;;9.52;1.70;;;3.80;94.70;;;;;;5001868;28;20128;-82
2024/01/14 05:28:37;;;;;;;12.55;2.85;;;3.70;94.80;;;;;;5034460;28;20048;-81
2024/01/14 05:31:03;;;;;;;14.18;3.17;;;3.70;94.80;;;;;;5017215;28;20037;-81
2024/01/14 05:33:29;;;;;;;18.83;2.88;;;3.70;94.90;;;;;;5001785;28;20052;-83
2024/01/14 05:35:54;;;;;;;19.27;3.13;;;3.70;94.90;;;;;;5017849;28;20060;-81
2024/01/14 05:38:20;;;;;;;27.00;3.35;;;3.80;95.00;;;;;;5001706;28;20179;-82
2024/01/14 05:40:46;;;;;;;18.98;3.75;;;3.70;94.90;;;;;;5001543;28;20037;-82
2024/01/14 05:43:11;;;;;;;13.80;2.75;;;3.70;95.10;;;;;;5001289;28;20414;-82
2024/01/14 05:45:38;;;;;;;14.85;3.17;;;3.70;95.00;;;;;;5017920;28;20163;-81
2024/01/14 05:48:05;;;;;;;20.23;3.22;;;3.80;95.00;;;;;;5033994;28;20059;-82
2024/01/14 05:50:31;;;;;;;18.73;3.28;;;3.80;94.90;;;;;;5001277;28;20041;-83
2024/01/14 05:52:57;;;;;;;13.10;2.95;;;3.70;95.00;;;;;;5001077;28;20072;-83
2024/01/14 05:55:23;;;;;;;13.35;2.30;;;3.70;95.10;;;;;;5001285;28;20095;-81
2024/01/14 05:57:48;;;;;;;10.40;1.92;;;3.70;95.00;;;;;;5000846;28;20498;-84
2024/01/14 06:00:14;;;;;;;11.07;2.20;;;3.80;95.00;;;;;;5017164;28;20077;-81
2024/01/14 06:02:40;;;;;;;10.48;2.28;;;3.80;94.90;;;;;;5016842;28;20057;-81
2024/01/14 06:05:07;;;;;;;7.70;2.17;;;3.80;94.80;;;;;;4984867;28;20155;-82
2024/01/14 06:07:32;;;;;;;11.95;2.22;;;3.80;94.90;;;;;;5017344;28;20034;-81
2024/01/14 06:09:58;;;;;;;8.65;1.98;;;3.80;94.80;;;;;;5033606;28;20140;-82
2024/01/14 06:12:24;;;;;;;11.63;1.77;;;3.80;94.60;;;;;;5017279;28;20041;-81
2024/01/14 06:14:50;;;;;;;12.70;2.08;;;3.90;94.60;;;;;;5000761;28;20052;-80
2024/01/14 06:17:15;;;;;;;17.25;3.03;;;3.90;94.50;;;;;;5000721;28;20080;-81
2024/01/14 06:19:44;;;;;;;10.48;2.50;;;3.90;94.40;;;;;;4984539;28;20160;-82
2024/01/14 06:22:12;;;;;;;10.15;2.20;;;3.90;94.40;;;;;;5000569;28;20049;-82
2024/01/14 06:24:38;;;;;;;10.30;2.95;;;3.90;94.30;;;;;;5016443;28;20044;-81
2024/01/14 06:27:04;;;;;;;11.30;2.05;;;3.90;94.20;;;;;;4984162;28;20038;-84
2024/01/14 06:29:29;;;;;;;7.90;1.77;;;3.80;94.20;;;;;;5016619;28;20077;-81
2024/01/14 06:31:58;;;;;;;8.07;1.92;;;3.80;94.10;;;;;;5033185;28;20044;-81
2024/01/14 06:34:24;;;;;;;11.05;2.00;;;3.80;94.10;;;;;;5017882;28;20528;-81
2024/01/14 06:36:50;;;;;;;8.65;2.20;;;3.80;93.90;;;;;;5016539;28;20498;-81
2024/01/14 06:39:16;;;;;;;12.10;2.25;;;3.90;93.80;;;;;;5032654;28;20041;-82
2024/01/14 06:41:41;;;;;;;10.90;2.95;;;3.90;93.80;;;;;;5031947;28;20033;-82
2024/01/14 06:44:07;;;;;;;10.57;2.38;;;3.90;93.90;;;;;;5032934;28;20045;-81
2024/01/14 06:46:33;;;;;;;9.43;1.77;;;3.90;93.90;;;;;;5000430;28;20033;-83
2024/01/14 06:48:58;;;;;;;9.23;1.88;;;4.00;93.70;;;;;;4999946;28;20038;-81
2024/01/14 06:51:24;;;;;;;8.57;1.58;;;3.90;93.60;;;;;;5032890;28;20041;-81
2024/01/14 06:53:50;;;;;;;6.47;1.45;;;3.90;93.80;;;;;;5032724;28;20041;-81
2024/01/14 06:56:16;;;;;;;10.40;2.83;;;4.00;93.80;;;;;;5001450;28;20048;-80
2024/01/14 06:58:42;;;;;;;18.05;3.60;;;4.00;93.60;;;;;;5003312;28;20083;-82
2024/01/14 07:01:07;;;;;;;5.32;1.30;;;3.90;93.60;;;;;;5003100;28;20083;-83
2024/01/14 07:03:33;;;;;;;8.77;2.33;;;3.90;93.70;;;;;;5002969;28;20045;-82
2024/01/14 07:05:59;;;;;;;9.13;2.00;;;3.90;93.60;;;;;;5003032;28;20033;-80
2024/01/14 07:08:25;;;;;;;11.38;1.90;;;3.90;93.70;;;;;;5003374;28;20389;-82
2024/01/14 07:10:51;;;;;;;11.20;2.15;;;3.80;93.70;;;;;;5003205;28;20178;-80
2024/01/14 07:13:17;;;;;;;8.40;1.90;;;3.80;93.90;;;;;;5019342;28;20087;-82
2024/01/14 07:15:43;;;;;;;9.25;2.00;;;3.80;93.80;;;;;;5002801;28;20041;-82
2024/01/14 07:18:09;;;;;;;9.95;1.85;;;3.80;93.80;;;;;;4986867;28;20047;-82
2024/01/14 07:20:34;;;;;;;12.27;1.73;;;3.80;93.80;;;;;;5002977;28;20045;-82
2024/01/14 07:23:00;;;;;;;12.68;2.90;;;3.80;93.90;;;;;;5019263;28;20044;-82
2024/01/14 07:25:26;;;;;;;3.95;1.23;;;3.80;93.90;;;;;;5019541;28;20043;-81
2024/01/14 07:27:52;;;;;;;14.07;1.70;;;3.80;94.00;;;;;;5002738;28;20070;-83
2024/01/14 07:30:18;;;;;;;14.30;2.55;;;3.80;93.90;;;;;;5002965;28;20049;-81
2024/01/14 07:32:45;;;;;;;14.20;2.83;;;3.80;93.90;;;;;;5019128;28;20044;-84
2024/01/14 07:35:11;;;;;;;13.70;2.15;;;3.80;94.10;;;;;;5003065;28;20076;-85
2024/01/14 07:37:37;;;;;;;9.52;2.05;;;3.80;94.00;;;;;;5019166;28;20183;-80
2024/01/14 07:40:04;;;;;;;13.23;2.33;;;3.70;94.10;;;;;;4986371;28;20554;-82
2024/01/14 07:42:30;;;;;;;13.32;3.05;;;3.70;94.20;;;;;;4986774;28;20040;-81
2024/01/14 07:44:55;;;;;;;10.57;2.13;;;3.60;94.10;;;;;;5031082;28;20396;-83
2024/01/14 07:47:21;;;;;;;12.15;2.63;;;3.60;94.20;;;;;;5003092;28;20037;-82
2024/01/14 07:49:49;;;;;;;9.93;2.20;;;3.60;94.10;;;;;;4990348;28;20042;-81
2024/01/14 07:52:18;;;;;;;17.00;2.72;;;3.60;94.20;;;;;;5000844;28;20408;-83
2024/01/14 07:54:44;;;;;;;14.45;2.40;;;3.50;94.20;;;;;;5029841;28;20045;-81
2024/01/14 07:57:10;;;;;;;11.15;2.35;;;3.50;94.30;;;;;;5014800;28;20116;-81
2024/01/14 07:59:36;;;;;;;19.17;2.72;;;3.50;94.40;;;;;;4995678;28;20384;-82
2024/01/14 08:02:02;;;;;;;9.95;2.67;;;3.50;94.30;;;;;;4987197;28;20091;-82
2024/01/14 08:04:27;;;;;;;12.88;3.58;;;3.40;94.50;;;;;;5007727;28;20537;-83
2024/01/14 08:06:53;;;;;;;12.93;2.55;;;3.30;94.50;;;;;;4998411;28;20063;-84
2024/01/14 08:09:20;;;;;;;15.35;2.83;;;3.30;94.60;;;;;;4995562;28;20061;-81
2024/01/14 08:11:45;;;;;;;11.57;2.42;;;3.20;94.70;;;;;;5008832;28;20052;-82
2024/01/14 08:14:11;;;;;;;9.77;2.25;;;3.30;94.80;;;;;;4983298;28;20401;-84
2024/01/14 08:16:37;;;;;;;17.58;2.83;;;3.30;94.90;;;;;;4983664;28;20092;-82
2024/01/14 08:19:03;;;;;;;13.90;2.33;;;3.30;94.90;;;;;;4967622;28;20422;-82
2024/01/14 08:21:29;;;;;;;13.70;2.92;;;3.20;94.90;;;;;;4983588;28;20037;-83
2024/01/14 08:23:54;;;;;;;9.40;2.20;;;3.20;95.00;;;;;;5015610;28;20449;-81
2024/01/14 08:26:20;;;;;;;10.48;1.95;;;3.30;95.00;;;;;;4986677;28;20029;-81
2024/01/14 08:28:46;;;;;;;13.43;2.58;;;3.30;95.00;;;;;;4998845;28;20041;-81
2024/01/14 08:31:12;;;;;;;12.23;2.28;;;3.20;95.10;;;;;;5001949;28;20037;-81
2024/01/14 08:33:41;;;;;;;15.30;2.22;;;3.20;95.10;;;;;;4992349;28;20049;-82
2024/01/14 08:36:08;;;;;;;11.90;2.28;;;3.30;95.10;;;;;;5002632;28;20042;-82
2024/01/14 08:38:35;;;;;;;13.85;2.90;;;3.20;95.10;;;;;;5006621;28;20053;-81
2024/01/14 08:41:01;;;;;;;10.98;2.10;;;3.20;95.10;;;;;;5009148;28;20041;-81
2024/01/14 08:43:26;;;;;;;17.30;2.13;;;3.20;95.10;;;;;;4996235;28;20115;-82
2024/01/14 08:45:52;;;;;;;11.50;2.55;;;3.20;95.20;;;;;;4985299;28;20038;-83
2024/01/14 08:48:18;;;;;;;15.50;3.28;;;3.20;95.40;;;;;;4990689;28;20501;-83
2024/01/14 08:50:44;;;;;;;12.52;3.33;;;3.30;95.40;;;;;;4987117;28;20076;-83
2024/01/14 08:53:09;;;;;;;11.82;3.25;;;3.30;95.40;;;;;;5004975;28;20041;-83
2024/01/14 08:55:35;;;;;;;8.75;3.88;;;3.30;95.50;;;;;;4999901;28;20056;-81
2024/01/14 08:58:01;;;;;;;15.50;6.25;;;3.30;95.40;;;;;;4994862;28;20093;-81
2024/01/14 09:00:26;;;;;;;14.40;3.55;;;3.40;95.30;;;;;;4982495;28;20044;-82
2024/01/14 09:02:52;;;;;;;14.15;4.20;;;3.40;95.30;;;;;;4980975;28;20504;-80
2024/01/14 09:05:18;;;;;;;10.85;2.50;;;3.40;95.40;;;;;;5000002;28;20060;-80
2024/01/14 09:07:43;;;;;;;10.18;2.13;;;3.50;95.40;;;;;;4992666;28;20037;-82
2024/01/14 09:10:10;;;;;;;7.72;2.13;;;3.50;95.30;;;;;;5006661;28;20116;-81
2024/01/14 09:12:36;;;;;;;11.60;2.25;;;3.50;95.30;;;;;;5000595;28;20042;-80
2024/01/14 09:15:01;;;;;;;11.32;2.88;;;3.60;95.20;;;;;;4982795;28;20095;-80
2024/01/14 09:17:27;;;;;;;9.00;1.60;;;3.60;95.20;;;;;;5000504;28;20041;-80
2024/01/14 09:19:53;;;;;;;10.98;2.67;;;3.70;95.20;;;;;;4981411;28;20049;-82
2024/01/14 09:22:18;;;;;;;9.65;2.15;;;3.80;95.00;;;;;;5000936;28;20038;-82
2024/01/14 09:24:45;;;;;;;9.05;2.05;;;3.80;94.90;;;;;;5002092;28;20037;-80
2024/01/14 09:27:13;;;;;;;11.93;2.58;;;3.80;94.90;;;;;;5000478;28;21178;-81
2024/01/14 09:29:39;;;;;;;11.45;3.13;;;3.90;94.90;;;;;;5001158;28;20120;-81
2024/01/14 09:32:05;;;;;;;8.82;2.15;;;3.90;94.90;;;;;;5007667;28;20053;-79
2024/01/14 09:34:31;;;;;;;8.27;2.10;;;3.90;94.90;;;;;;5001351;28;20169;-80
2024/01/14 09:36:57;;;;;;;13.10;2.97;;;3.90;94.90;;;;;;4997700;28;20041;-80
2024/01/14 09:39:22;;;;;;;9.82;2.65;;;4.00;94.90;;;;;;4997519;28;20038;-81
2024/01/14 09:42:12;;;;;;;9.95;3.10;;;4.00;94.90;;;;;;5010475;28;20041;-80
2024/01/14 09:44:39;;;;;;;12.15;3.05;;;4.00;94.90;;;;;;5006395;28;20133;-80
2024/01/14 09:47:08;;;;;;;11.85;2.15;;;4.00;94.90;;;;;;5011015;28;20543;-80
2024/01/14 09:49:35;;;;;;;9.60;1.75;;;4.10;95.00;;;;;;4999678;28;20038;-79
2024/01/14 09:52:04;;;;;;;9.25;2.95;;;4.10;94.90;;;;;;5013180;28;20054;-81
2024/01/14 09:54:30;;;;;;;8.43;1.98;;;4.10;94.90;;;;;;5014098;28;20490;-79
2024/01/14 09:56:58;;;;;;;11.82;2.72;;;4.10;95.00;;;;;;5025583;28;20076;-79
2024/01/14 09:59:25;;;;;;;18.77;2.30;;;4.20;95.10;;;;;;5027930;28;20045;-79
2024/01/14 10:01:52;;;;;;;13.65;2.78;;;4.30;95.00;;;;;;5014057;28;20103;-81
2024/01/14 10:04:20;;;;;;;11.75;3.08;;;4.40;95.00;;;;;;5009643;28;20049;-80
2024/01/14 10:06:47;;;;;;;10.65;4.18;;;4.40;95.00;;;;;;5000112;28;20072;-79
2024/01/14 10:09:12;;;;;;;15.60;2.97;;;4.40;95.00;;;;;;5000051;28;20045;-80
2024/01/14 10:11:38;;;;;;;13.93;3.00;;;4.50;95.00;;;;;;5001384;28;20404;-79
2024/01/14 10:14:04;;;;;;;9.77;2.17;;;4.50;95.00;;;;;;5002242;28;20041;-77
2024/01/14 10:16:29;;;;;;;17.27;2.67;;;4.50;94.90;;;;;;5002921;28;20045;-80
2024/01/14 10:18:55;;;;;;;17.85;3.25;;;4.50;94.90;;;;;;5018044;28;20469;-82
2024/01/14 10:21:21;;;;;;;15.95;2.85;;;4.60;94.90;;;;;;5007579;28;20045;-81
2024/01/14 10:23:47;;;;;;;12.70;1.73;;;4.50;94.90;;;;;;4985988;28;20075;-81
2024/01/14 10:26:14;;;;;;;10.90;2.75;;;4.60;94.80;;;;;;5030024;28;20068;-81
2024/01/14 10:28:40;;;;;;;16.65;4.28;;;4.60;94.60;;;;;;5013112;28;20033;-79
2024/01/14 10:31:09;;;;;;;13.45;3.03;;;4.60;94.50;;;;;;5002967;28;20037;-82
2024/01/14 10:33:35;;;;;;;11.45;3.22;;;4.60;94.50;;;;;;5026193;28;20139;-82
2024/01/14 10:36:07;;;;;;;7.40;3.00;;;4.60;94.50;;;;;;5001094;28;20477;-81
2024/01/14 10:38:34;;;;;;;8.25;2.45;;;4.60;94.50;;;;;;5018908;28;20044;-79
2024/01/14 10:41:00;;;;;;;12.75;2.58;;;4.70;94.50;;;;;;5009288;28;20489;-81
2024/01/14 10:43:26;;;;;;;12.45;2.75;;;4.70;94.20;;;;;;4995687;28;20045;-80
2024/01/14 10:45:52;;;;;;;11.30;3.47;;;4.70;94.00;;;;;;4982510;28;20497;-81
2024/01/14 10:48:28;;;;;;;16.98;3.05;;;4.70;93.80;;;;;;5009037;28;20144;-80
2024/01/14 10:50:56;;;;;;;8.38;1.92;;;4.70;93.80;;;;;;4994587;28;20033;-79
2024/01/14 10:53:33;;;;;;;9.95;3.20;;;4.90;93.70;;;;;;5017957;28;20401;-81
2024/01/14 10:56:01;;;;;;;8.32;2.50;;;4.90;93.70;;;;;;5012454;28;20079;-79
2024/01/14 10:58:29;;;;;;;5.13;1.88;;;5.00;93.70;;;;;;4998826;28;20452;-81
2024/01/14 11:01:00;;;;;;;7.53;2.15;;;5.00;93.60;;;;;;4996197;28;20111;-79
2024/01/14 11:03:27;;;;;;;10.23;1.50;;;5.00;93.20;;;;;;5015290;28;20041;-79
2024/01/14 11:05:53;;;;;;;5.72;1.42;;;5.00;92.80;;;;;;5012179;28;20049;-79
2024/01/14 11:08:21;;;;;;;8.23;2.00;;;5.00;92.60;;;;;;5007827;28;20040;-79
2024/01/14 11:10:49;;;;;;;8.15;1.90;;;4.90;92.70;;;;;;5034593;28;20040;-80
2024/01/14 11:13:32;;;;;;;5.85;1.70;;;5.00;92.60;;;;;;5019457;28;20068;-80
2024/01/14 11:16:25;;;;;;;5.65;1.77;;;5.00;92.80;;;;;;5019370;28;20492;-79
2024/01/14 11:19:10;;;;;;;11.50;2.95;;;5.00;92.80;;;;;;5019394;28;20488;-80
2024/01/14 11:22:01;;;;;;;10.05;2.63;;;5.10;92.70;;;;;;5019405;28;20051;-79
2024/01/14 11:24:28;;;;;;;6.53;2.25;;;5.10;92.80;;;;;;5019144;28;20493;-80
2024/01/14 11:26:56;;;;;;;9.23;1.90;;;5.30;92.90;;;;;;5036155;28;20063;-78
2024/01/14 11:29:39;;;;;;;9.20;2.80;;;5.30;92.80;;;;;;5002666;28;20562;-78
2024/01/14 11:32:15;;;;;;;13.15;3.08;;;5.40;93.00;;;;;;5035575;28;20037;-78
2024/01/14 11:34:47;;;;;;;12.70;1.90;;;5.50;92.80;;;;;;5036381;28;20040;-81
2024/01/14 11:37:40;;;;;;;9.10;1.90;;;5.50;92.80;;;;;;5019056;28;20094;-81
2024/01/14 11:40:26;;;;;;;6.40;1.50;;;5.60;92.80;;;;;;5019163;28;20049;-79
2024/01/14 11:43:02;;;;;;;5.68;2.05;;;5.70;92.60;;;;;;5019040;28;20124;-81
2024/01/14 11:45:27;;;;;;;13.10;1.95;;;5.90;92.40;;;;;;5019195;28;20126;-80
2024/01/14 11:47:55;;;;;;;10.02;1.95;;;6.00;92.10;;;;;;5019262;28;20388;-80
2024/01/14 11:50:23;;;;;;;8.85;2.75;;;6.10;92.00;;;;;;5019036;28;20095;-79
2024/01/14 11:52:51;;;;;;;14.45;2.15;;;6.20;91.90;;;;;;5035495;28;20040;-79
2024/01/14 11:55:28;;;;;;;14.73;2.42;;;6.30;91.70;;;;;;5035426;28;20037;-81
2024/01/14 11:57:55;;;;;;;11.13;2.10;;;6.20;91.60;;;;;;5015372;28;20072;-81
2024/01/14 12:00:25;;;;;;;6.13;1.60;;;6.30;91.30;;;;;;5015779;28;20048;-81
2024/01/14 12:03:04;;;;;;;17.60;2.42;;;6.40;91.10;;;;;;5015373;28;20037;-79
2024/01/14 12:05:30;;;;;;;11.70;1.92;;;6.60;89.70;;;;;;5015253;28;20037;-79
2024/01/14 12:07:55;;;;;;;5.53;1.02;;;6.70;88.60;;;;;;5015507;28;20043;-80
2024/01/14 12:10:21;;;;;;;5.38;1.13;;;6.90;87.40;;;;;;5015525;28;20554;-81
2024/01/14 12:12:47;;;;;;;6.50;1.30;;;7.00;86.00;;;;;;4999163;28;20048;-81
2024/01/14 12:15:14;;;;;;;7.43;1.05;;;6.90;85.40;;;;;;4999113;28;20041;-80
2024/01/14 12:17:51;;;;;;;4.70;1.00;;;6.80;85.50;;;;;;5015613;28;20179;-82
2024/01/14 12:20:21;;;;;;;8.95;2.85;;;6.70;85.00;;;;;;5031894;28;20052;-82
2024/01/14 12:22:47;;;;;;;9.05;1.58;;;6.70;85.10;;;;;;5015362;28;20124;-81
2024/01/14 12:25:14;;;;;;;6.15;1.55;;;6.70;85.40;;;;;;5031994;28;20515;-79
2024/01/14 12:27:39;;;;;;;6.00;2.08;;;6.60;85.30;;;;;;5015239;28;20045;-80
2024/01/14 12:30:07;;;;;;;4.72;1.20;;;6.60;85.20;;;;;;4999037;28;20044;-80
2024/01/14 12:32:33;;;;;;;6.95;1.30;;;6.50;85.30;;;;;;5015671;28;20131;-81
2024/01/14 12:34:59;;;;;;;5.15;1.42;;;6.40;85.10;;;;;;5031998;28;20089;-82
2024/01/14 12:37:25;;;;;;;7.55;1.50;;;6.10;84.70;;;;;;4982812;28;20474;-79
2024/01/14 12:39:52;;;;;;;4.68;0.90;;;6.10;85.50;;;;;;5015899;28;20041;-81
2024/01/14 12:42:18;;;;;;;5.25;1.35;;;6.20;85.70;;;;;;5018683;28;20042;-82
2024/01/14 12:44:44;;;;;;;5.82;1.10;;;6.40;85.20;;;;;;5018722;28;20044;-80
2024/01/14 12:47:10;;;;;;;4.07;0.98;;;6.70;84.90;;;;;;5002706;28;20048;-79